createdAt,value
2023-09-13T00:00:21.626Z,18.73
2023-09-13T00:03:25.368Z,18.62
2023-09-13T00:06:29.092Z,18.71
2023-09-13T00:09:34.283Z,18.70
2023-09-13T00:12:38.017Z,18.64
2023-09-13T00:15:45.765Z,18.65
2023-09-13T00:18:49.706Z,18.68
2023-09-13T00:21:53.495Z,18.65
2023-09-13T00:24:58.968Z,18.67
2023-09-13T00:28:02.811Z,18.65
2023-09-13T00:31:06.932Z,18.63
2023-09-13T00:34:10.961Z,18.58
2023-09-13T00:37:14.877Z,18.67
2023-09-13T00:40:20.420Z,18.70
2023-09-13T00:43:24.302Z,18.69
2023-09-13T00:46:28.288Z,18.68
2023-09-13T00:49:32.160Z,18.57
2023-09-13T00:52:35.910Z,18.66
2023-09-13T00:55:41.558Z,18.48
2023-09-13T00:58:45.635Z,18.59
2023-09-13T01:01:49.743Z,18.62
2023-09-13T01:04:54.793Z,18.52
2023-09-13T01:07:58.784Z,18.56
2023-09-13T01:11:03.981Z,18.52
2023-09-13T01:14:07.880Z,18.61
2023-09-13T01:17:15.821Z,18.58
2023-09-13T01:20:25.192Z,18.56
2023-09-13T01:23:47.230Z,18.51
2023-09-13T01:27:09.334Z,18.55
2023-09-13T01:30:15.673Z,18.53
2023-09-13T01:33:19.423Z,18.51
2023-09-13T01:36:23.202Z,18.52
2023-09-13T01:39:27.113Z,18.48
2023-09-13T01:42:32.692Z,18.46
2023-09-13T01:45:38.311Z,18.44
2023-09-13T01:48:42.432Z,18.47
2023-09-13T01:51:47.836Z,18.41
2023-09-13T01:54:51.639Z,18.40
2023-09-13T01:57:55.446Z,18.34
2023-09-13T02:01:00.648Z,18.31
2023-09-13T02:04:06.947Z,18.36
2023-09-13T02:07:10.730Z,17.99
2023-09-13T02:10:14.528Z,18.25
2023-09-13T02:13:18.418Z,18.37
2023-09-13T02:16:23.836Z,18.35
2023-09-13T02:19:27.614Z,18.32
2023-09-13T02:22:34.960Z,18.33
2023-09-13T02:25:39.320Z,18.34
2023-09-13T02:28:43.088Z,18.33
2023-09-13T02:31:48.344Z,18.35
2023-09-13T02:34:52.163Z,18.18
2023-09-13T02:37:56.671Z,18.24
2023-09-13T02:41:00.562Z,18.25
2023-09-13T02:44:04.383Z,18.33
2023-09-13T02:47:09.780Z,18.30
2023-09-13T02:50:13.800Z,18.29
2023-09-13T02:53:17.562Z,18.29
2023-09-13T02:56:22.264Z,18.26
2023-09-13T02:59:26.402Z,18.29
2023-09-13T03:02:32.410Z,18.20
2023-09-13T03:05:36.292Z,18.18
2023-09-13T03:08:40.033Z,18.25
2023-09-13T03:11:45.141Z,18.23
2023-09-13T03:14:49.004Z,18.17
2023-09-13T03:17:54.298Z,18.17
2023-09-13T03:20:58.144Z,18.07
2023-09-13T03:24:01.826Z,18.15
2023-09-13T03:27:06.065Z,18.15
2023-09-13T03:30:11.733Z,18.15
2023-09-13T03:33:17.211Z,18.02
2023-09-13T03:36:21.347Z,17.99
2023-09-13T03:39:30.018Z,18.01
2023-09-13T03:42:34.356Z,18.10
2023-09-13T03:45:38.198Z,18.01
2023-09-13T03:48:44.101Z,17.97
2023-09-13T03:51:49.416Z,18.01
2023-09-13T03:54:53.564Z,18.00
2023-09-13T03:57:57.375Z,17.50
2023-09-13T04:01:01.108Z,17.51
2023-09-13T04:04:06.838Z,17.74
2023-09-13T04:07:10.928Z,17.64
2023-09-13T04:10:14.753Z,17.74
2023-09-13T04:13:18.544Z,17.73
2023-09-13T04:16:22.474Z,17.69
2023-09-13T04:19:27.765Z,17.66
2023-09-13T04:22:33.041Z,17.80
2023-09-13T04:25:37.461Z,17.73
2023-09-13T04:28:43.664Z,17.73
2023-09-13T04:31:49.536Z,17.64
2023-09-13T04:34:56.426Z,17.68
2023-09-13T04:38:00.121Z,17.64
2023-09-13T04:41:04.839Z,17.79
2023-09-13T04:44:09.024Z,17.79
2023-09-13T04:47:12.920Z,17.81
2023-09-13T04:50:18.189Z,17.77
2023-09-13T04:53:22.784Z,17.65
2023-09-13T04:56:26.718Z,17.69
2023-09-13T04:59:44.853Z,17.84
2023-09-13T05:02:49.532Z,17.51
2023-09-13T05:05:55.014Z,17.85
2023-09-13T05:08:58.802Z,17.78
2023-09-13T05:12:02.517Z,17.77
2023-09-13T05:15:07.139Z,17.98
2023-09-13T05:18:10.896Z,17.90
2023-09-13T05:21:16.241Z,17.71
2023-09-13T05:24:19.956Z,17.68
2023-09-13T05:27:23.769Z,17.70
2023-09-13T05:30:32.028Z,17.61
2023-09-13T05:33:36.058Z,17.76
2023-09-13T05:36:42.621Z,17.84
2023-09-13T05:39:46.306Z,17.90
2023-09-13T05:42:50.112Z,17.69
2023-09-13T05:45:54.184Z,17.74
2023-09-13T05:48:58.365Z,17.61
2023-09-13T05:52:03.926Z,17.72
2023-09-13T05:55:07.932Z,17.85
2023-09-13T05:58:11.798Z,17.74
2023-09-13T06:01:15.837Z,17.60
2023-09-13T06:04:19.626Z,17.61
2023-09-13T06:07:24.997Z,17.52
2023-09-13T06:10:28.852Z,17.70
2023-09-13T06:13:32.862Z,17.49
2023-09-13T06:16:36.816Z,17.62
2023-09-13T06:19:40.801Z,17.56
2023-09-13T06:22:46.035Z,17.60
2023-09-13T06:25:50.045Z,17.53
2023-09-13T06:28:53.925Z,17.42
2023-09-13T06:32:05.384Z,17.47
2023-09-13T06:35:14.991Z,17.33
2023-09-13T06:38:22.086Z,17.30
2023-09-13T06:41:26.444Z,17.26
2023-09-13T06:44:42.829Z,17.11
2023-09-13T06:47:49.535Z,17.00
2023-09-13T06:51:33.658Z,17.17
2023-09-13T06:54:21.349Z,17.15
2023-09-13T07:00:40.401Z,16.95
2023-09-13T07:03:56.850Z,16.89
2023-09-13T07:07:04.076Z,16.98
2023-09-13T07:10:10.109Z,16.96
2023-09-13T07:13:13.869Z,16.96
2023-09-13T07:16:17.843Z,16.79
2023-09-13T07:19:21.556Z,16.84
2023-09-13T07:22:25.360Z,16.78
2023-09-13T07:25:30.528Z,16.90
2023-09-13T07:28:34.392Z,16.71
2023-09-13T07:31:38.134Z,16.89
2023-09-13T07:34:41.903Z,17.12
2023-09-13T07:37:45.630Z,17.19
2023-09-13T07:40:50.881Z,17.09
2023-09-13T07:43:54.649Z,17.27
2023-09-13T07:46:59.153Z,17.17
2023-09-13T07:50:03.750Z,17.27
2023-09-13T07:53:07.684Z,17.23
2023-09-13T07:56:13.416Z,17.31
2023-09-13T07:59:18.790Z,17.42
2023-09-13T08:02:22.597Z,17.23
2023-09-13T08:05:26.344Z,17.23
2023-09-13T08:08:31.988Z,17.34
2023-09-13T08:11:37.277Z,17.57
2023-09-13T08:14:41.869Z,17.60
2023-09-13T08:17:46.958Z,17.47
2023-09-13T08:20:51.452Z,17.47
2023-09-13T08:23:55.170Z,17.40
2023-09-13T08:27:00.647Z,17.62
2023-09-13T08:30:06.315Z,17.52
2023-09-13T08:33:11.994Z,17.55
2023-09-13T08:36:15.738Z,17.58
2023-09-13T08:39:19.449Z,17.66
2023-09-13T08:42:24.788Z,17.39
2023-09-13T08:45:28.700Z,17.36
2023-09-13T08:48:34.267Z,17.48
2023-09-13T08:51:38.612Z,17.30
2023-09-13T08:54:57.207Z,17.50
2023-09-13T08:58:04.438Z,17.52
2023-09-13T09:01:11.272Z,17.43
2023-09-13T09:04:16.123Z,17.30
2023-09-13T09:07:22.244Z,17.53
2023-09-13T09:10:26.114Z,17.65
2023-09-13T09:13:32.559Z,17.69
2023-09-13T09:16:37.194Z,17.69
2023-09-13T09:19:41.164Z,17.75
2023-09-13T09:22:45.625Z,17.89
2023-09-13T09:25:51.331Z,17.71
2023-09-13T09:28:56.768Z,18.01
2023-09-13T09:32:00.966Z,17.75
2023-09-13T09:35:06.920Z,17.65
2023-09-13T09:38:23.030Z,17.55
2023-09-13T09:41:33.145Z,17.42
2023-09-13T09:44:38.374Z,17.56
2023-09-13T09:47:42.771Z,17.60
2023-09-13T09:50:48.400Z,17.38
2023-09-13T09:53:52.421Z,17.45
2023-09-13T09:56:56.189Z,17.38
2023-09-13T10:00:03.146Z,17.45
2023-09-13T10:03:16.497Z,17.63
2023-09-13T10:06:20.349Z,17.56
2023-09-13T10:09:24.410Z,17.62
2023-09-13T10:12:28.089Z,17.64
2023-09-13T10:15:33.407Z,17.66
2023-09-13T10:18:43.920Z,17.64
2023-09-13T10:21:48.031Z,17.75
2023-09-13T10:24:54.064Z,17.56
2023-09-13T10:27:58.576Z,17.61
2023-09-13T10:31:04.976Z,17.62
2023-09-13T10:34:11.234Z,17.46
2023-09-13T10:37:22.762Z,17.56
2023-09-13T10:40:34.152Z,17.61
2023-09-13T10:43:39.345Z,17.55
2023-09-13T10:46:44.995Z,17.55
2023-09-13T10:49:50.191Z,17.61
2023-09-13T10:52:54.168Z,17.56
2023-09-13T10:55:59.089Z,17.54
2023-09-13T10:59:05.004Z,17.57
2023-09-13T11:02:10.431Z,17.55
2023-09-13T11:05:15.272Z,17.56
2023-09-13T11:08:28.824Z,17.62
2023-09-13T11:11:33.260Z,17.42
2023-09-13T11:14:37.070Z,17.49
2023-09-13T11:17:45.276Z,17.45
2023-09-13T11:20:49.118Z,17.43
2023-09-13T11:27:12.054Z,17.41
2023-09-13T11:30:15.972Z,17.31
2023-09-13T11:33:21.116Z,17.31
2023-09-13T11:36:26.952Z,17.15
2023-09-13T11:39:31.136Z,17.15
2023-09-13T11:42:36.316Z,17.01
2023-09-13T11:45:44.194Z,17.09
2023-09-13T11:49:00.250Z,17.13
2023-09-13T11:52:25.749Z,17.13
2023-09-13T11:58:51.186Z,16.94
2023-09-13T12:01:59.617Z,16.97
2023-09-13T12:05:17.976Z,16.91
2023-09-13T12:08:30.264Z,16.97
2023-09-13T12:11:36.518Z,17.04
2023-09-13T12:17:49.623Z,16.77
2023-09-13T12:20:58.107Z,16.69
2023-09-13T12:24:03.881Z,16.68
2023-09-13T12:27:08.905Z,16.59
2023-09-13T12:30:19.142Z,16.49
2023-09-13T12:33:24.443Z,16.44
2023-09-13T12:36:29.841Z,16.31
2023-09-13T12:39:33.872Z,16.31
2023-09-13T12:42:40.400Z,16.07
2023-09-13T12:45:44.403Z,16.17
2023-09-13T12:48:48.666Z,16.22
2023-09-13T12:51:55.655Z,15.97
2023-09-13T12:54:59.405Z,15.68
2023-09-13T12:58:05.630Z,16.17
2023-09-13T13:01:10.724Z,16.14
2023-09-13T13:04:15.017Z,16.31
2023-09-13T13:07:29.062Z,16.21
2023-09-13T13:10:33.610Z,16.26
2023-09-13T13:13:38.686Z,15.97
2023-09-13T13:16:46.837Z,16.14
2023-09-13T13:19:56.903Z,16.24
2023-09-13T13:23:02.737Z,16.32
2023-09-13T13:26:06.617Z,16.07
2023-09-13T13:29:11.416Z,15.96
2023-09-13T13:32:15.146Z,15.99
2023-09-13T13:35:18.886Z,15.96
2023-09-13T13:38:24.047Z,15.88
2023-09-13T13:41:27.945Z,16.08
2023-09-13T13:44:33.701Z,16.17
2023-09-13T13:47:37.423Z,15.90
2023-09-13T13:50:43.034Z,16.11
2023-09-13T13:53:48.582Z,16.17
2023-09-13T13:56:52.335Z,16.09
2023-09-13T13:59:56.963Z,16.08
2023-09-13T14:03:01.102Z,16.15
2023-09-13T14:06:05.071Z,16.22
2023-09-13T14:09:10.268Z,16.40
2023-09-13T14:12:14.223Z,16.33
2023-09-13T14:15:21.448Z,16.25
2023-09-13T14:18:25.373Z,16.15
2023-09-13T14:21:29.226Z,16.21
2023-09-13T14:24:34.670Z,16.22
2023-09-13T14:27:54.114Z,16.25
2023-09-13T14:31:02.278Z,16.34
2023-09-13T14:34:07.293Z,16.21
2023-09-13T14:37:11.264Z,16.27
2023-09-13T14:40:16.454Z,16.25
2023-09-13T14:43:20.212Z,16.28
2023-09-13T14:46:24.403Z,16.35
2023-09-13T14:49:28.397Z,16.28
2023-09-13T14:52:37.592Z,16.41
2023-09-13T14:55:42.799Z,16.41
2023-09-13T14:58:46.918Z,16.26
2023-09-13T15:01:52.313Z,16.29
2023-09-13T15:04:56.087Z,16.21
2023-09-13T15:08:00.097Z,16.30
2023-09-13T15:11:05.783Z,16.23
2023-09-13T15:14:11.511Z,16.32
2023-09-13T15:17:15.225Z,16.30
2023-09-13T15:20:19.049Z,16.25
2023-09-13T15:23:22.850Z,16.07
2023-09-13T15:26:28.344Z,16.26
2023-09-13T15:29:32.034Z,16.12
2023-09-13T15:32:35.895Z,16.17
2023-09-13T15:35:42.410Z,16.05
2023-09-13T15:38:58.246Z,15.88
2023-09-13T15:42:04.771Z,16.02
2023-09-13T15:45:10.589Z,16.01
2023-09-13T15:48:14.664Z,15.93
2023-09-13T15:51:18.553Z,15.87
2023-09-13T15:54:22.386Z,15.76
2023-09-13T15:57:27.509Z,15.82
2023-09-13T16:00:31.313Z,15.74
2023-09-13T16:03:35.246Z,15.96
2023-09-13T16:06:40.134Z,16.04
2023-09-13T16:09:43.888Z,16.10
2023-09-13T16:12:49.015Z,16.21
2023-09-13T16:15:52.857Z,16.12
2023-09-13T16:18:56.704Z,16.01
2023-09-13T16:22:00.497Z,16.16
2023-09-13T16:25:04.967Z,16.02
2023-09-13T16:28:10.202Z,16.05
2023-09-13T16:31:14.022Z,16.05
2023-09-13T16:34:18.369Z,16.01
2023-09-13T16:37:22.021Z,15.94
2023-09-13T16:40:25.842Z,16.04
2023-09-13T16:43:30.934Z,15.99
2023-09-13T16:46:34.750Z,15.94
2023-09-13T16:49:38.571Z,15.81
2023-09-13T16:52:42.390Z,15.72
2023-09-13T16:55:46.181Z,15.73
2023-09-13T16:58:51.315Z,15.77
2023-09-13T17:01:54.990Z,15.72
2023-09-13T17:04:58.790Z,15.74
2023-09-13T17:08:02.734Z,15.69
2023-09-13T17:11:09.606Z,15.71
2023-09-13T17:14:14.940Z,15.56
2023-09-13T17:17:22.700Z,15.52
2023-09-13T17:20:32.983Z,15.55
2023-09-13T17:23:36.906Z,15.62
2023-09-13T17:26:40.635Z,15.41
2023-09-13T17:29:46.030Z,15.38
2023-09-13T17:32:50.619Z,15.53
2023-09-13T17:35:54.390Z,15.50
2023-09-13T17:38:58.189Z,15.51
2023-09-13T17:42:01.987Z,15.53
2023-09-13T17:45:08.408Z,15.33
2023-09-13T17:48:12.716Z,15.44
2023-09-13T17:51:17.184Z,15.36
2023-09-13T17:54:21.055Z,15.22
2023-09-13T17:57:26.228Z,15.11
2023-09-13T18:00:31.578Z,15.18
2023-09-13T18:03:36.279Z,15.22
2023-09-13T18:06:40.358Z,15.13
2023-09-13T18:09:44.347Z,15.17
2023-09-13T18:12:48.495Z,15.14
2023-09-13T18:15:53.887Z,15.15
2023-09-13T18:18:58.075Z,15.13
2023-09-13T18:22:01.937Z,15.09
2023-09-13T18:25:06.407Z,15.07
2023-09-13T18:28:10.179Z,15.14
2023-09-13T18:31:16.052Z,14.87
2023-09-13T18:34:19.907Z,14.84
2023-09-13T18:37:23.686Z,15.01
2023-09-13T18:40:27.474Z,14.99
2023-09-13T18:43:31.799Z,14.90
2023-09-13T18:46:36.973Z,15.00
2023-09-13T18:49:40.780Z,14.85
2023-09-13T18:52:44.596Z,14.85
2023-09-13T18:55:48.420Z,14.70
2023-09-13T18:58:52.377Z,14.62
2023-09-13T19:02:01.457Z,14.78
2023-09-13T19:05:05.773Z,14.80
2023-09-13T19:08:09.960Z,14.72
2023-09-13T19:11:15.013Z,14.68
2023-09-13T19:14:18.701Z,14.64
2023-09-13T19:17:23.856Z,14.61
2023-09-13T19:20:27.665Z,14.59
2023-09-13T19:23:32.937Z,14.69
2023-09-13T19:26:36.642Z,14.61
2023-09-13T19:29:40.587Z,14.69
2023-09-13T19:32:45.865Z,14.56
2023-09-13T19:35:49.757Z,14.58
2023-09-13T19:38:53.592Z,14.59
2023-09-13T19:41:57.313Z,14.58
2023-09-13T19:45:01.059Z,14.60
2023-09-13T19:48:07.250Z,14.43
2023-09-13T19:51:12.996Z,14.39
2023-09-13T19:54:17.109Z,14.48
2023-09-13T19:57:21.466Z,14.25
2023-09-13T20:00:30.180Z,14.28
2023-09-13T20:03:35.999Z,14.26
2023-09-13T20:06:39.834Z,14.36
2023-09-13T20:09:44.567Z,14.37
2023-09-13T20:12:48.574Z,14.35
2023-09-13T20:15:52.377Z,14.30
2023-09-13T20:18:57.577Z,14.39
2023-09-13T20:22:01.428Z,14.28
2023-09-13T20:25:05.703Z,14.15
2023-09-13T20:28:09.491Z,14.10
2023-09-13T20:31:13.420Z,14.11
2023-09-13T20:34:19.889Z,14.06
2023-09-13T20:37:23.799Z,14.01
2023-09-13T20:40:27.581Z,14.19
2023-09-13T20:43:31.360Z,14.16
2023-09-13T20:46:35.618Z,13.98
2023-09-13T20:49:40.829Z,14.04
2023-09-13T20:52:44.617Z,13.87
2023-09-13T20:55:48.299Z,13.96
2023-09-13T20:58:52.144Z,14.02
2023-09-13T21:01:56.295Z,13.97
2023-09-13T21:05:01.628Z,13.99
2023-09-13T21:08:05.813Z,13.92
2023-09-13T21:11:10.417Z,13.77
2023-09-13T21:14:14.951Z,13.76
2023-09-13T21:17:18.673Z,13.62
2023-09-13T21:20:23.729Z,13.73
2023-09-13T21:23:27.990Z,13.85
2023-09-13T21:26:31.700Z,13.72
2023-09-13T21:29:38.518Z,13.65
2023-09-13T21:32:42.209Z,13.71
2023-09-13T21:35:47.405Z,13.61
2023-09-13T21:38:51.216Z,13.69
2023-09-13T21:41:54.913Z,13.66
2023-09-13T21:44:58.698Z,13.67
2023-09-13T21:48:02.449Z,13.69
2023-09-13T21:51:07.583Z,13.65
2023-09-13T21:54:11.373Z,13.82
2023-09-13T21:57:15.821Z,13.66
2023-09-13T22:00:22.333Z,13.66
2023-09-13T22:03:28.821Z,13.65
2023-09-13T22:06:34.224Z,13.55
2023-09-13T22:09:38.482Z,13.66
2023-09-13T22:12:42.932Z,13.61
2023-09-13T22:15:46.963Z,13.50
2023-09-13T22:18:50.850Z,13.44
2023-09-13T22:21:56.563Z,13.44
2023-09-13T22:25:00.816Z,13.48
2023-09-13T22:28:04.814Z,13.52
2023-09-13T22:31:08.623Z,13.63
2023-09-13T22:34:12.751Z,13.55
2023-09-13T22:37:18.066Z,13.34
2023-09-13T22:40:21.862Z,13.45
2023-09-13T22:43:25.691Z,13.43
2023-09-13T22:46:29.920Z,13.30
2023-09-13T22:49:33.865Z,13.44
2023-09-13T22:52:39.067Z,13.42
2023-09-13T22:55:50.925Z,13.30
2023-09-13T22:58:54.841Z,13.38
2023-09-13T23:01:58.962Z,13.31
2023-09-13T23:05:02.879Z,13.38
2023-09-13T23:08:10.314Z,13.28
2023-09-13T23:11:15.310Z,13.26
2023-09-13T23:14:19.346Z,13.13
2023-09-13T23:17:23.232Z,13.31
2023-09-13T23:20:26.950Z,13.21
2023-09-13T23:23:32.393Z,13.10
2023-09-13T23:26:36.193Z,13.20
2023-09-13T23:29:39.846Z,12.99
2023-09-13T23:32:43.602Z,13.04
2023-09-13T23:35:47.433Z,12.96
2023-09-13T23:38:52.620Z,13.15
2023-09-13T23:41:56.623Z,13.19
2023-09-13T23:45:00.364Z,13.06
2023-09-13T23:48:04.242Z,13.01
2023-09-13T23:51:09.542Z,12.83
2023-09-13T23:54:14.597Z,13.00
2023-09-13T23:57:18.315Z,12.96
